createdAt,value
2022-09-16T00:01:35.203Z,12.24
2022-09-16T00:06:36.678Z,12.28
2022-09-16T00:11:38.146Z,12.31
2022-09-16T00:16:40.107Z,12.34
2022-09-16T00:21:41.644Z,12.28
2022-09-16T00:26:43.603Z,12.25
2022-09-16T00:31:45.130Z,12.26
2022-09-16T00:36:46.649Z,12.26
2022-09-16T00:41:48.139Z,12.30
2022-09-16T00:46:50.759Z,12.27
2022-09-16T00:52:00.090Z,12.31
2022-09-16T00:57:03.042Z,12.26
2022-09-16T01:02:14.208Z,12.29
2022-09-16T01:07:16.489Z,12.29
2022-09-16T01:12:17.957Z,12.30
2022-09-16T01:17:50.549Z,12.32
2022-09-16T01:23:10.809Z,12.26
2022-09-16T01:28:46.407Z,12.19
2022-09-16T01:34:12.295Z,12.13
2022-09-16T01:39:48.581Z,12.03
2022-09-16T01:45:00.563Z,12.02
2022-09-16T01:50:22.931Z,11.97
2022-09-16T01:55:59.798Z,11.97
2022-09-16T02:01:10.071Z,11.91
2022-09-16T02:06:18.526Z,11.92
2022-09-16T02:11:21.022Z,11.96
2022-09-16T02:16:39.109Z,11.95
2022-09-16T02:21:45.668Z,11.89
2022-09-16T02:26:54.205Z,11.81
2022-09-16T02:32:00.706Z,11.90
2022-09-16T02:37:08.284Z,11.90
2022-09-16T02:42:10.381Z,11.82
2022-09-16T02:47:17.466Z,11.77
2022-09-16T02:52:52.053Z,11.69
2022-09-16T02:57:53.708Z,11.62
2022-09-16T03:02:55.324Z,11.54
2022-09-16T03:07:57.694Z,11.49
2022-09-16T03:13:11.069Z,11.39
2022-09-16T03:18:37.130Z,11.30
2022-09-16T03:24:00.758Z,11.23
2022-09-16T03:29:08.527Z,11.25
2022-09-16T03:34:20.616Z,11.29
2022-09-16T03:39:22.632Z,11.32
2022-09-16T03:44:34.538Z,11.30
2022-09-16T03:49:36.888Z,11.28
2022-09-16T03:54:38.633Z,11.24
2022-09-16T03:59:41.162Z,11.26
2022-09-16T04:04:42.995Z,11.23
2022-09-16T04:09:44.430Z,11.20
2022-09-16T04:14:45.881Z,11.17
2022-09-16T04:19:47.335Z,11.16
2022-09-16T04:24:48.783Z,11.12
2022-09-16T04:29:50.296Z,11.22
2022-09-16T04:34:51.805Z,11.32
2022-09-16T04:39:53.399Z,11.35
2022-09-16T04:44:54.912Z,11.24
2022-09-16T04:49:56.363Z,11.06
2022-09-16T04:54:58.554Z,10.92
2022-09-16T05:00:00.012Z,10.81
2022-09-16T05:05:01.616Z,10.71
2022-09-16T05:10:03.510Z,10.65
2022-09-16T05:15:05.640Z,10.68
2022-09-16T05:20:07.438Z,10.74
2022-09-16T05:25:09.326Z,10.85
2022-09-16T05:30:11.427Z,10.88
2022-09-16T05:35:13.259Z,10.87
2022-09-16T05:40:14.844Z,10.87
2022-09-16T05:45:20.095Z,10.81
2022-09-16T05:50:24.753Z,10.97
2022-09-16T05:55:26.894Z,11.18
2022-09-16T06:00:28.330Z,11.25
2022-09-16T06:05:29.864Z,11.29
2022-09-16T06:10:31.423Z,11.26
2022-09-16T06:15:34.144Z,11.16
2022-09-16T06:20:36.691Z,11.06
2022-09-16T06:25:38.169Z,11.12
2022-09-16T06:30:39.706Z,11.16
2022-09-16T06:35:41.203Z,11.16
2022-09-16T06:40:42.977Z,11.29
2022-09-16T06:45:44.457Z,11.37
2022-09-16T06:50:46.147Z,11.46
2022-09-16T06:55:47.597Z,11.67
2022-09-16T07:00:50.400Z,11.88
2022-09-16T07:06:00.307Z,12.09
2022-09-16T07:11:03.262Z,12.30
2022-09-16T07:16:14.710Z,12.54
2022-09-16T07:21:18.411Z,12.75
2022-09-16T07:26:22.138Z,13.13
2022-09-16T07:31:26.950Z,13.41
2022-09-16T07:36:30.816Z,13.51
2022-09-16T07:41:37.576Z,13.70
2022-09-16T07:46:39.259Z,13.88
2022-09-16T07:51:41.361Z,14.00
2022-09-16T07:56:44.132Z,13.99
2022-09-16T08:01:46.274Z,14.07
2022-09-16T08:06:48.454Z,14.27
2022-09-16T08:11:50.192Z,14.42
2022-09-16T08:16:51.793Z,14.63
2022-09-16T08:21:53.381Z,14.64
2022-09-16T08:32:01.478Z,13.79
2022-09-16T08:37:02.989Z,13.39
2022-09-16T08:42:27.698Z,13.25
2022-09-16T08:48:08.099Z,13.43
2022-09-16T08:53:22.060Z,13.49
2022-09-16T08:58:27.103Z,13.53
2022-09-16T09:03:41.077Z,13.46
2022-09-16T09:08:57.431Z,13.79
2022-09-16T09:14:34.449Z,14.38
2022-09-16T09:20:05.366Z,14.28
2022-09-16T09:25:06.756Z,13.85
2022-09-16T09:30:21.846Z,13.82
2022-09-16T09:35:50.885Z,14.41
2022-09-16T09:40:58.651Z,14.69
2022-09-16T09:46:09.896Z,14.54
2022-09-16T09:51:37.253Z,14.40
2022-09-16T09:56:44.174Z,14.26
2022-09-16T10:01:45.812Z,14.17
2022-09-16T10:06:49.492Z,14.20
2022-09-16T10:11:55.470Z,14.29
2022-09-16T10:17:00.748Z,14.61
2022-09-16T10:22:11.563Z,14.93
2022-09-16T10:27:25.460Z,15.23
2022-09-16T10:32:26.994Z,15.47
2022-09-16T10:37:28.511Z,15.54
2022-09-16T10:42:30.451Z,15.67
2022-09-16T10:47:33.950Z,15.99
2022-09-16T10:52:44.659Z,16.33
2022-09-16T10:57:46.683Z,16.15
2022-09-16T11:03:06.761Z,15.95
2022-09-16T11:08:30.042Z,16.01
2022-09-16T11:13:49.690Z,16.32
2022-09-16T11:18:56.163Z,16.77
2022-09-16T11:24:15.926Z,17.08
2022-09-16T11:29:29.389Z,17.00
2022-09-16T11:34:40.131Z,16.93
2022-09-16T11:39:50.572Z,16.93
2022-09-16T11:45:23.601Z,17.06
2022-09-16T11:50:41.500Z,17.39
2022-09-16T11:56:01.348Z,17.23
2022-09-16T12:01:19.553Z,16.85
2022-09-16T12:06:25.132Z,16.85
2022-09-16T12:11:33.445Z,16.61
2022-09-16T12:16:41.814Z,16.57
2022-09-16T12:21:49.235Z,16.68
2022-09-16T12:27:34.024Z,16.68
2022-09-16T12:32:50.697Z,16.87
2022-09-16T12:37:54.260Z,16.89
2022-09-16T12:43:17.363Z,16.66
2022-09-16T12:48:51.296Z,16.61
2022-09-16T12:54:00.556Z,16.76
2022-09-16T12:59:16.873Z,16.63
2022-09-16T13:04:41.255Z,16.59
2022-09-16T13:09:43.244Z,16.58
2022-09-16T13:14:51.424Z,16.44
2022-09-16T13:19:55.119Z,16.11
2022-09-16T13:25:19.706Z,16.02
2022-09-16T13:30:27.054Z,16.03
2022-09-16T13:35:31.394Z,15.96
2022-09-16T13:40:32.893Z,15.97
2022-09-16T13:45:42.596Z,15.98
2022-09-16T13:50:51.862Z,15.96
2022-09-16T13:56:02.346Z,16.02
2022-09-16T14:01:27.926Z,16.05
2022-09-16T14:07:22.900Z,15.97
2022-09-16T14:12:45.836Z,15.91
2022-09-16T14:17:51.809Z,15.80
2022-09-16T14:23:19.911Z,15.66
2022-09-16T14:28:27.519Z,15.66
2022-09-16T14:33:32.344Z,15.71
2022-09-16T14:38:47.756Z,15.71
2022-09-16T14:43:49.594Z,15.81
2022-09-16T14:48:51.085Z,16.02
2022-09-16T14:54:13.892Z,15.89
2022-09-16T14:59:15.671Z,15.61
2022-09-16T15:04:25.889Z,15.61
2022-09-16T15:09:40.299Z,15.59
2022-09-16T15:14:41.834Z,15.61
2022-09-16T15:19:56.687Z,15.62
2022-09-16T15:24:59.491Z,15.64
2022-09-16T15:30:05.309Z,15.63
2022-09-16T15:35:27.145Z,15.55
2022-09-16T15:40:28.657Z,15.48
2022-09-16T15:45:30.252Z,15.41
2022-09-16T15:50:41.014Z,15.30
2022-09-16T15:55:59.484Z,15.24
2022-09-16T16:01:05.759Z,15.25
2022-09-16T16:06:07.291Z,15.27
2022-09-16T16:11:11.330Z,15.27
2022-09-16T16:16:15.127Z,15.24
2022-09-16T16:21:17.374Z,15.25
2022-09-16T16:26:19.384Z,15.17
2022-09-16T16:31:21.045Z,15.22
2022-09-16T16:36:22.619Z,15.17
2022-09-16T16:41:24.857Z,15.13
2022-09-16T16:46:27.768Z,15.16
2022-09-16T16:51:29.260Z,15.08
2022-09-16T16:56:30.794Z,15.00
2022-09-16T17:01:33.613Z,14.94
2022-09-16T17:06:36.767Z,14.82
2022-09-16T17:11:52.481Z,14.78
2022-09-16T17:16:55.117Z,14.71
2022-09-16T17:21:57.724Z,14.60
2022-09-16T17:26:59.901Z,14.50
2022-09-16T17:32:02.924Z,14.49
2022-09-16T17:37:08.252Z,14.36
2022-09-16T17:42:09.711Z,14.45
2022-09-16T17:47:11.229Z,14.43
2022-09-16T17:52:12.812Z,14.34
2022-09-16T17:57:14.262Z,14.26
2022-09-16T18:02:15.899Z,14.12
2022-09-16T18:07:18.010Z,14.01
2022-09-16T18:12:19.516Z,13.87
2022-09-16T18:17:21.043Z,13.72
2022-09-16T18:22:22.527Z,13.70
2022-09-16T18:27:25.043Z,13.60
2022-09-16T18:32:26.496Z,13.57
2022-09-16T18:37:28.729Z,13.56
2022-09-16T18:42:30.273Z,13.57
2022-09-16T18:47:31.721Z,13.59
2022-09-16T18:52:33.177Z,13.55
2022-09-16T18:57:34.619Z,13.54
2022-09-16T19:02:37.359Z,13.47
2022-09-16T19:07:38.896Z,13.51
2022-09-16T19:12:40.358Z,13.51
2022-09-16T19:17:41.858Z,13.46
2022-09-16T19:22:43.737Z,13.41
2022-09-16T19:27:45.176Z,13.36
2022-09-16T19:32:46.775Z,13.28
2022-09-16T19:37:48.253Z,13.17
2022-09-16T19:42:49.807Z,13.06
2022-09-16T19:47:51.332Z,13.01
2022-09-16T19:52:52.855Z,12.96
2022-09-16T19:57:54.379Z,12.95
2022-09-16T20:02:55.953Z,12.91
2022-09-16T20:07:57.567Z,12.94
2022-09-16T20:12:59.593Z,12.95
2022-09-16T20:18:01.103Z,12.92
2022-09-16T20:23:02.613Z,12.84
2022-09-16T20:28:04.068Z,12.78
2022-09-16T20:33:05.734Z,12.64
2022-09-16T20:38:07.521Z,12.57
2022-09-16T20:43:08.986Z,12.54
2022-09-16T20:48:10.802Z,12.42
2022-09-16T20:53:12.286Z,12.47
2022-09-16T20:58:13.753Z,12.61
2022-09-16T21:03:15.236Z,12.75
2022-09-16T21:08:16.685Z,12.95
2022-09-16T21:13:18.154Z,13.01
2022-09-16T21:18:19.620Z,13.10
2022-09-16T21:23:21.503Z,13.17
2022-09-16T21:28:23.383Z,13.24
2022-09-16T21:33:26.047Z,13.26
2022-09-16T21:38:28.570Z,13.22
2022-09-16T21:43:33.438Z,13.17
2022-09-16T21:48:34.878Z,13.19
2022-09-16T21:53:37.312Z,13.17
2022-09-16T21:58:38.877Z,13.24
2022-09-16T22:03:42.177Z,13.22
2022-09-16T22:08:48.615Z,13.02
2022-09-16T22:13:51.244Z,12.82
2022-09-16T22:19:01.611Z,12.71
2022-09-16T22:24:04.271Z,12.69
2022-09-16T22:29:06.441Z,12.77
2022-09-16T22:34:08.329Z,12.84
2022-09-16T22:39:14.899Z,12.83
2022-09-16T22:44:16.384Z,12.74
2022-09-16T22:49:17.887Z,12.72
2022-09-16T22:54:19.340Z,12.73
2022-09-16T22:59:20.933Z,12.78
2022-09-16T23:04:22.725Z,12.83
2022-09-16T23:09:24.313Z,12.73
2022-09-16T23:14:26.272Z,12.71
2022-09-16T23:19:27.864Z,12.76
2022-09-16T23:24:29.355Z,12.80
2022-09-16T23:29:30.827Z,12.81
2022-09-16T23:34:32.495Z,12.81
2022-09-16T23:39:34.070Z,12.88
2022-09-16T23:44:35.558Z,12.95
2022-09-16T23:49:37.010Z,12.96
2022-09-16T23:54:38.634Z,12.98
2022-09-16T23:59:40.077Z,12.98
